sensor_id;sensor_type;location;lat;lon;timestamp;temperature;humidity
2897;DHT22;1458;49.728;9.228;2023-03-04T00:00:09;-1.50;99.90
2897;DHT22;1458;49.728;9.228;2023-03-04T00:02:37;-1.60;99.90
2897;DHT22;1458;49.728;9.228;2023-03-04T00:05:05;-1.60;99.90
2897;DHT22;1458;49.728;9.228;2023-03-04T00:07:33;-1.70;99.90
2897;DHT22;1458;49.728;9.228;2023-03-04T00:10:00;-1.60;99.90
2897;DHT22;1458;49.728;9.228;2023-03-04T00:12:28;-1.40;99.90
2897;DHT22;1458;49.728;9.228;2023-03-04T00:14:58;-1.30;99.90
2897;DHT22;1458;49.728;9.228;2023-03-04T00:17:25;-1.30;99.90
2897;DHT22;1458;49.728;9.228;2023-03-04T00:19:54;-1.30;99.90
2897;DHT22;1458;49.728;9.228;2023-03-04T00:22:22;-1.40;99.90
2897;DHT22;1458;49.728;9.228;2023-03-04T00:24:49;-1.40;99.90
2897;DHT22;1458;49.728;9.228;2023-03-04T00:27:17;-1.30;99.90
2897;DHT22;1458;49.728;9.228;2023-03-04T00:29:44;-1.50;99.90
2897;DHT22;1458;49.728;9.228;2023-03-04T00:32:13;-1.60;99.90
2897;DHT22;1458;49.728;9.228;2023-03-04T00:34:43;-1.70;99.90
2897;DHT22;1458;49.728;9.228;2023-03-04T00:37:10;-1.80;99.90
2897;DHT22;1458;49.728;9.228;2023-03-04T00:39:37;-1.90;99.90
2897;DHT22;1458;49.728;9.228;2023-03-04T00:42:05;-1.90;99.90
2897;DHT22;1458;49.728;9.228;2023-03-04T00:44:32;-1.80;99.90
2897;DHT22;1458;49.728;9.228;2023-03-04T00:46:59;-1.90;99.90
2897;DHT22;1458;49.728;9.228;2023-03-04T00:49:28;-2.00;99.90
2897;DHT22;1458;49.728;9.228;2023-03-04T00:51:56;-1.90;99.90
2897;DHT22;1458;49.728;9.228;2023-03-04T00:54:23;-1.90;99.90
2897;DHT22;1458;49.728;9.228;2023-03-04T00:56:50;-1.70;99.90
2897;DHT22;1458;49.728;9.228;2023-03-04T00:59:18;-1.80;99.90
2897;DHT22;1458;49.728;9.228;2023-03-04T01:01:45;-2.00;99.90
2897;DHT22;1458;49.728;9.228;2023-03-04T01:04:12;-2.00;99.90
2897;DHT22;1458;49.728;9.228;2023-03-04T01:06:41;-1.90;99.90
2897;DHT22;1458;49.728;9.228;2023-03-04T01:09:08;-1.70;99.90
2897;DHT22;1458;49.728;9.228;2023-03-04T01:11:36;-1.80;99.90
2897;DHT22;1458;49.728;9.228;2023-03-04T01:14:03;-1.80;99.90
2897;DHT22;1458;49.728;9.228;2023-03-04T01:16:31;-1.80;99.90
2897;DHT22;1458;49.728;9.228;2023-03-04T01:18:59;-1.80;99.90
2897;DHT22;1458;49.728;9.228;2023-03-04T01:21:26;-2.00;99.90
2897;DHT22;1458;49.728;9.228;2023-03-04T01:23:56;-2.00;99.90
2897;DHT22;1458;49.728;9.228;2023-03-04T01:26:23;-1.80;99.90
2897;DHT22;1458;49.728;9.228;2023-03-04T01:28:50;-2.00;99.90
2897;DHT22;1458;49.728;9.228;2023-03-04T01:31:18;-2.10;99.90
2897;DHT22;1458;49.728;9.228;2023-03-04T01:33:45;-2.20;99.90
2897;DHT22;1458;49.728;9.228;2023-03-04T01:36:12;-2.20;99.90
2897;DHT22;1458;49.728;9.228;2023-03-04T01:38:40;-2.30;99.90
2897;DHT22;1458;49.728;9.228;2023-03-04T01:41:09;-2.10;99.90
2897;DHT22;1458;49.728;9.228;2023-03-04T01:43:37;-2.30;99.90
2897;DHT22;1458;49.728;9.228;2023-03-04T01:46:05;-2.40;99.90
2897;DHT22;1458;49.728;9.228;2023-03-04T01:48:35;-2.40;99.90
2897;DHT22;1458;49.728;9.228;2023-03-04T01:51:05;-2.40;99.90
2897;DHT22;1458;49.728;9.228;2023-03-04T01:53:36;-2.40;99.90
2897;DHT22;1458;49.728;9.228;2023-03-04T01:56:13;-2.40;99.90
2897;DHT22;1458;49.728;9.228;2023-03-04T01:58:42;-2.30;99.90
2897;DHT22;1458;49.728;9.228;2023-03-04T02:01:10;-2.10;99.90
2897;DHT22;1458;49.728;9.228;2023-03-04T02:03:38;-1.90;99.90
2897;DHT22;1458;49.728;9.228;2023-03-04T02:06:05;-1.90;99.90
2897;DHT22;1458;49.728;9.228;2023-03-04T02:08:33;-2.00;99.90
2897;DHT22;1458;49.728;9.228;2023-03-04T02:11:01;-2.10;99.90
2897;DHT22;1458;49.728;9.228;2023-03-04T02:13:30;-2.10;99.90
2897;DHT22;1458;49.728;9.228;2023-03-04T02:15:58;-2.20;99.90
2897;DHT22;1458;49.728;9.228;2023-03-04T02:18:27;-2.20;99.90
2897;DHT22;1458;49.728;9.228;2023-03-04T02:21:01;-2.20;99.90
2897;DHT22;1458;49.728;9.228;2023-03-04T02:23:38;-2.10;99.90
2897;DHT22;1458;49.728;9.228;2023-03-04T02:26:16;-2.20;99.90
2897;DHT22;1458;49.728;9.228;2023-03-04T02:28:48;-2.10;99.90
2897;DHT22;1458;49.728;9.228;2023-03-04T02:31:26;-2.10;99.90
2897;DHT22;1458;49.728;9.228;2023-03-04T02:33:57;-2.20;99.90
2897;DHT22;1458;49.728;9.228;2023-03-04T02:36:27;-2.30;99.90
2897;DHT22;1458;49.728;9.228;2023-03-04T02:38:58;-2.50;99.90
2897;DHT22;1458;49.728;9.228;2023-03-04T02:41:30;-2.50;99.90
2897;DHT22;1458;49.728;9.228;2023-03-04T02:43:59;-2.50;99.90
2897;DHT22;1458;49.728;9.228;2023-03-04T02:46:26;-2.60;99.90
2897;DHT22;1458;49.728;9.228;2023-03-04T02:48:54;-2.60;99.90
2897;DHT22;1458;49.728;9.228;2023-03-04T02:51:21;-2.40;99.90
2897;DHT22;1458;49.728;9.228;2023-03-04T02:53:49;-2.20;99.90
2897;DHT22;1458;49.728;9.228;2023-03-04T02:56:16;-2.00;99.90
2897;DHT22;1458;49.728;9.228;2023-03-04T02:58:45;-1.90;99.90
2897;DHT22;1458;49.728;9.228;2023-03-04T03:01:12;-1.80;99.90
2897;DHT22;1458;49.728;9.228;2023-03-04T03:03:41;-1.60;99.90
2897;DHT22;1458;49.728;9.228;2023-03-04T03:06:09;-1.20;99.90
2897;DHT22;1458;49.728;9.228;2023-03-04T03:08:37;-1.10;99.90
2897;DHT22;1458;49.728;9.228;2023-03-04T03:11:04;-1.00;99.90
2897;DHT22;1458;49.728;9.228;2023-03-04T03:13:33;-0.80;99.90
2897;DHT22;1458;49.728;9.228;2023-03-04T03:16:02;-0.80;99.90
2897;DHT22;1458;49.728;9.228;2023-03-04T03:18:29;-0.70;99.90
2897;DHT22;1458;49.728;9.228;2023-03-04T03:20:56;-0.60;99.90
2897;DHT22;1458;49.728;9.228;2023-03-04T03:23:24;-0.50;99.90
2897;DHT22;1458;49.728;9.228;2023-03-04T03:25:51;-0.50;99.90
2897;DHT22;1458;49.728;9.228;2023-03-04T03:28:18;-0.50;99.90
2897;DHT22;1458;49.728;9.228;2023-03-04T03:30:46;-0.40;99.90
2897;DHT22;1458;49.728;9.228;2023-03-04T03:33:15;-0.40;99.90
2897;DHT22;1458;49.728;9.228;2023-03-04T03:35:42;-0.40;99.90
2897;DHT22;1458;49.728;9.228;2023-03-04T03:38:10;-0.50;99.90
2897;DHT22;1458;49.728;9.228;2023-03-04T03:40:38;-0.50;99.90
2897;DHT22;1458;49.728;9.228;2023-03-04T03:43:05;-0.50;99.90
2897;DHT22;1458;49.728;9.228;2023-03-04T03:45:33;-0.50;99.90
2897;DHT22;1458;49.728;9.228;2023-03-04T03:48:00;-0.50;99.90
2897;DHT22;1458;49.728;9.228;2023-03-04T03:50:29;-0.40;99.90
2897;DHT22;1458;49.728;9.228;2023-03-04T03:52:56;-0.30;99.90
2897;DHT22;1458;49.728;9.228;2023-03-04T03:55:23;-0.30;99.90
2897;DHT22;1458;49.728;9.228;2023-03-04T03:57:51;-0.30;99.90
2897;DHT22;1458;49.728;9.228;2023-03-04T04:00:19;-0.30;99.90
2897;DHT22;1458;49.728;9.228;2023-03-04T04:02:47;-0.30;99.90
2897;DHT22;1458;49.728;9.228;2023-03-04T04:05:14;-0.30;99.90
2897;DHT22;1458;49.728;9.228;2023-03-04T04:07:43;-0.20;99.90
2897;DHT22;1458;49.728;9.228;2023-03-04T04:10:10;-0.10;99.90
2897;DHT22;1458;49.728;9.228;2023-03-04T04:12:38;-0.20;99.90
2897;DHT22;1458;49.728;9.228;2023-03-04T04:15:08;-0.20;99.90
2897;DHT22;1458;49.728;9.228;2023-03-04T04:17:36;-0.10;99.90
2897;DHT22;1458;49.728;9.228;2023-03-04T04:20:05;-0.10;99.90
2897;DHT22;1458;49.728;9.228;2023-03-04T04:22:34;-0.10;99.90
2897;DHT22;1458;49.728;9.228;2023-03-04T04:25:03;0.00;99.90
2897;DHT22;1458;49.728;9.228;2023-03-04T04:27:33;0.00;99.90
2897;DHT22;1458;49.728;9.228;2023-03-04T04:30:00;0.00;99.90
2897;DHT22;1458;49.728;9.228;2023-03-04T04:32:28;0.00;99.90
2897;DHT22;1458;49.728;9.228;2023-03-04T04:34:55;0.10;99.90
2897;DHT22;1458;49.728;9.228;2023-03-04T04:37:22;0.10;99.90
2897;DHT22;1458;49.728;9.228;2023-03-04T04:39:50;0.00;99.90
2897;DHT22;1458;49.728;9.228;2023-03-04T04:42:21;0.00;99.90
2897;DHT22;1458;49.728;9.228;2023-03-04T04:44:49;0.00;99.90
2897;DHT22;1458;49.728;9.228;2023-03-04T04:47:17;0.10;99.90
2897;DHT22;1458;49.728;9.228;2023-03-04T04:49:44;0.20;99.90
2897;DHT22;1458;49.728;9.228;2023-03-04T04:52:11;0.10;99.90
2897;DHT22;1458;49.728;9.228;2023-03-04T04:54:39;0.10;99.90
2897;DHT22;1458;49.728;9.228;2023-03-04T04:57:06;0.10;99.90
2897;DHT22;1458;49.728;9.228;2023-03-04T04:59:35;0.10;99.90
2897;DHT22;1458;49.728;9.228;2023-03-04T05:02:02;0.10;99.90
2897;DHT22;1458;49.728;9.228;2023-03-04T05:04:30;0.10;99.90
2897;DHT22;1458;49.728;9.228;2023-03-04T05:06:57;0.00;99.90
2897;DHT22;1458;49.728;9.228;2023-03-04T05:09:24;0.10;99.90
2897;DHT22;1458;49.728;9.228;2023-03-04T05:11:52;0.20;99.90
2897;DHT22;1458;49.728;9.228;2023-03-04T05:14:19;0.10;99.90
2897;DHT22;1458;49.728;9.228;2023-03-04T05:16:49;0.20;99.90
2897;DHT22;1458;49.728;9.228;2023-03-04T05:19:17;0.20;99.90
2897;DHT22;1458;49.728;9.228;2023-03-04T05:21:45;0.10;99.90
2897;DHT22;1458;49.728;9.228;2023-03-04T05:24:12;0.10;99.90
2897;DHT22;1458;49.728;9.228;2023-03-04T05:26:40;0.10;99.90
2897;DHT22;1458;49.728;9.228;2023-03-04T05:29:07;0.20;99.90
2897;DHT22;1458;49.728;9.228;2023-03-04T05:31:35;0.20;99.90
2897;DHT22;1458;49.728;9.228;2023-03-04T05:34:04;0.20;99.90
2897;DHT22;1458;49.728;9.228;2023-03-04T05:36:31;0.30;99.90
2897;DHT22;1458;49.728;9.228;2023-03-04T05:38:59;0.30;99.90
2897;DHT22;1458;49.728;9.228;2023-03-04T05:41:26;0.30;99.90
2897;DHT22;1458;49.728;9.228;2023-03-04T05:43:53;0.30;99.90
2897;DHT22;1458;49.728;9.228;2023-03-04T05:46:21;0.30;99.90
2897;DHT22;1458;49.728;9.228;2023-03-04T05:48:50;0.30;99.90
2897;DHT22;1458;49.728;9.228;2023-03-04T05:51:19;0.40;99.90
2897;DHT22;1458;49.728;9.228;2023-03-04T05:53:47;0.40;99.90
2897;DHT22;1458;49.728;9.228;2023-03-04T05:56:16;0.30;99.90
2897;DHT22;1458;49.728;9.228;2023-03-04T05:58:44;0.30;99.90
2897;DHT22;1458;49.728;9.228;2023-03-04T06:01:16;0.40;99.90
2897;DHT22;1458;49.728;9.228;2023-03-04T06:03:44;0.50;99.90
2897;DHT22;1458;49.728;9.228;2023-03-04T06:06:13;0.50;99.90
2897;DHT22;1458;49.728;9.228;2023-03-04T06:08:42;0.50;99.90
2897;DHT22;1458;49.728;9.228;2023-03-04T06:11:09;0.40;99.90
2897;DHT22;1458;49.728;9.228;2023-03-04T06:13:36;0.50;99.90
2897;DHT22;1458;49.728;9.228;2023-03-04T06:16:05;0.40;99.90
2897;DHT22;1458;49.728;9.228;2023-03-04T06:18:33;0.40;99.90
2897;DHT22;1458;49.728;9.228;2023-03-04T06:21:01;0.40;99.90
2897;DHT22;1458;49.728;9.228;2023-03-04T06:23:29;0.50;99.90
2897;DHT22;1458;49.728;9.228;2023-03-04T06:25:59;0.50;99.90
2897;DHT22;1458;49.728;9.228;2023-03-04T06:28:27;0.60;99.90
2897;DHT22;1458;49.728;9.228;2023-03-04T06:30:55;0.60;99.90
2897;DHT22;1458;49.728;9.228;2023-03-04T06:33:23;0.70;99.90
2897;DHT22;1458;49.728;9.228;2023-03-04T06:35:53;0.70;99.90
2897;DHT22;1458;49.728;9.228;2023-03-04T06:38:21;0.90;99.90
2897;DHT22;1458;49.728;9.228;2023-03-04T06:40:48;1.00;99.90
2897;DHT22;1458;49.728;9.228;2023-03-04T06:43:17;0.90;99.90
2897;DHT22;1458;49.728;9.228;2023-03-04T06:45:45;0.90;99.90
2897;DHT22;1458;49.728;9.228;2023-03-04T06:48:12;0.90;99.90
2897;DHT22;1458;49.728;9.228;2023-03-04T06:50:40;1.00;99.90
2897;DHT22;1458;49.728;9.228;2023-03-04T06:53:07;1.10;99.90
2897;DHT22;1458;49.728;9.228;2023-03-04T06:55:34;1.00;99.90
2897;DHT22;1458;49.728;9.228;2023-03-04T06:58:02;1.10;99.90
2897;DHT22;1458;49.728;9.228;2023-03-04T07:00:31;1.20;99.90
2897;DHT22;1458;49.728;9.228;2023-03-04T07:02:58;1.20;99.90
2897;DHT22;1458;49.728;9.228;2023-03-04T07:05:25;1.10;99.90
2897;DHT22;1458;49.728;9.228;2023-03-04T07:07:53;1.00;99.90
2897;DHT22;1458;49.728;9.228;2023-03-04T07:10:20;1.10;99.90
2897;DHT22;1458;49.728;9.228;2023-03-04T07:12:48;1.20;99.90
2897;DHT22;1458;49.728;9.228;2023-03-04T07:15:15;1.30;99.90
2897;DHT22;1458;49.728;9.228;2023-03-04T07:17:44;1.30;99.90
2897;DHT22;1458;49.728;9.228;2023-03-04T07:20:11;1.20;99.90
2897;DHT22;1458;49.728;9.228;2023-03-04T07:22:39;1.20;99.90
2897;DHT22;1458;49.728;9.228;2023-03-04T07:25:07;1.20;99.90
2897;DHT22;1458;49.728;9.228;2023-03-04T07:27:35;1.20;99.90
2897;DHT22;1458;49.728;9.228;2023-03-04T07:30:04;1.20;99.90
2897;DHT22;1458;49.728;9.228;2023-03-04T07:32:31;1.40;99.90
2897;DHT22;1458;49.728;9.228;2023-03-04T07:35:01;1.50;99.90
2897;DHT22;1458;49.728;9.228;2023-03-04T07:37:29;1.40;99.90
2897;DHT22;1458;49.728;9.228;2023-03-04T07:39:56;1.60;99.90
2897;DHT22;1458;49.728;9.228;2023-03-04T07:42:24;1.70;99.90
2897;DHT22;1458;49.728;9.228;2023-03-04T07:44:58;1.80;99.90
2897;DHT22;1458;49.728;9.228;2023-03-04T07:47:26;1.80;99.90
2897;DHT22;1458;49.728;9.228;2023-03-04T07:49:54;1.80;99.90
2897;DHT22;1458;49.728;9.228;2023-03-04T07:52:23;1.70;99.90
2897;DHT22;1458;49.728;9.228;2023-03-04T07:54:50;1.80;99.90
2897;DHT22;1458;49.728;9.228;2023-03-04T07:57:18;1.90;99.90
2897;DHT22;1458;49.728;9.228;2023-03-04T07:59:45;2.10;99.90
2897;DHT22;1458;49.728;9.228;2023-03-04T08:02:12;2.00;99.90
2897;DHT22;1458;49.728;9.228;2023-03-04T08:04:40;2.10;99.90
2897;DHT22;1458;49.728;9.228;2023-03-04T08:07:07;2.20;99.90
2897;DHT22;1458;49.728;9.228;2023-03-04T08:09:36;2.20;99.90
2897;DHT22;1458;49.728;9.228;2023-03-04T08:12:03;2.10;99.90
2897;DHT22;1458;49.728;9.228;2023-03-04T08:14:31;2.00;99.90
2897;DHT22;1458;49.728;9.228;2023-03-04T08:16:59;2.10;99.90
2897;DHT22;1458;49.728;9.228;2023-03-04T08:19:26;2.20;99.90
2897;DHT22;1458;49.728;9.228;2023-03-04T08:21:54;2.20;99.90
2897;DHT22;1458;49.728;9.228;2023-03-04T08:24:21;2.20;99.90
2897;DHT22;1458;49.728;9.228;2023-03-04T08:26:50;2.20;99.90
2897;DHT22;1458;49.728;9.228;2023-03-04T08:29:19;2.20;99.90
2897;DHT22;1458;49.728;9.228;2023-03-04T08:31:47;2.30;99.90
2897;DHT22;1458;49.728;9.228;2023-03-04T08:34:16;2.20;99.90
2897;DHT22;1458;49.728;9.228;2023-03-04T08:36:44;2.40;99.90
2897;DHT22;1458;49.728;9.228;2023-03-04T08:39:13;2.50;99.90
2897;DHT22;1458;49.728;9.228;2023-03-04T08:41:43;2.50;99.90
2897;DHT22;1458;49.728;9.228;2023-03-04T08:44:13;2.70;99.90
2897;DHT22;1458;49.728;9.228;2023-03-04T08:46:41;2.90;99.90
2897;DHT22;1458;49.728;9.228;2023-03-04T08:49:10;2.90;99.90
2897;DHT22;1458;49.728;9.228;2023-03-04T08:51:39;2.70;99.90
2897;DHT22;1458;49.728;9.228;2023-03-04T08:54:06;2.80;99.90
2897;DHT22;1458;49.728;9.228;2023-03-04T08:56:33;2.90;99.90
2897;DHT22;1458;49.728;9.228;2023-03-04T08:59:01;3.10;99.90
2897;DHT22;1458;49.728;9.228;2023-03-04T09:01:29;3.30;99.90
2897;DHT22;1458;49.728;9.228;2023-03-04T09:03:57;3.00;99.90
2897;DHT22;1458;49.728;9.228;2023-03-04T09:06:24;3.10;99.90
2897;DHT22;1458;49.728;9.228;2023-03-04T09:08:51;3.20;99.90
2897;DHT22;1458;49.728;9.228;2023-03-04T09:11:19;3.20;99.90
2897;DHT22;1458;49.728;9.228;2023-03-04T09:13:46;3.20;99.90
2897;DHT22;1458;49.728;9.228;2023-03-04T09:16:16;3.30;99.90
2897;DHT22;1458;49.728;9.228;2023-03-04T09:18:44;3.40;99.90
2897;DHT22;1458;49.728;9.228;2023-03-04T09:21:13;3.70;99.90
2897;DHT22;1458;49.728;9.228;2023-03-04T09:23:40;3.80;99.90
2897;DHT22;1458;49.728;9.228;2023-03-04T09:26:20;3.80;99.90
2897;DHT22;1458;49.728;9.228;2023-03-04T09:28:50;3.90;99.90
2897;DHT22;1458;49.728;9.228;2023-03-04T09:31:18;3.90;99.90
2897;DHT22;1458;49.728;9.228;2023-03-04T09:33:47;4.00;99.90
2897;DHT22;1458;49.728;9.228;2023-03-04T09:36:15;4.10;99.90
2897;DHT22;1458;49.728;9.228;2023-03-04T09:38:43;4.10;99.90
2897;DHT22;1458;49.728;9.228;2023-03-04T09:41:15;4.20;99.90
2897;DHT22;1458;49.728;9.228;2023-03-04T09:43:46;4.40;99.90
2897;DHT22;1458;49.728;9.228;2023-03-04T09:46:17;4.60;99.70
2897;DHT22;1458;49.728;9.228;2023-03-04T09:48:52;4.50;98.30
2897;DHT22;1458;49.728;9.228;2023-03-04T09:51:27;4.70;98.70
2897;DHT22;1458;49.728;9.228;2023-03-04T09:54:08;4.50;98.10
2897;DHT22;1458;49.728;9.228;2023-03-04T09:56:38;4.50;98.20
2897;DHT22;1458;49.728;9.228;2023-03-04T09:59:14;4.80;97.30
2897;DHT22;1458;49.728;9.228;2023-03-04T10:01:47;4.70;96.90
2897;DHT22;1458;49.728;9.228;2023-03-04T10:04:24;5.10;95.60
2897;DHT22;1458;49.728;9.228;2023-03-04T10:06:57;5.20;95.70
2897;DHT22;1458;49.728;9.228;2023-03-04T10:09:27;5.20;94.10
2897;DHT22;1458;49.728;9.228;2023-03-04T10:12:00;5.30;94.80
2897;DHT22;1458;49.728;9.228;2023-03-04T10:14:37;5.10;92.20
2897;DHT22;1458;49.728;9.228;2023-03-04T10:17:13;5.30;92.00
2897;DHT22;1458;49.728;9.228;2023-03-04T10:19:57;5.40;92.50
2897;DHT22;1458;49.728;9.228;2023-03-04T10:22:31;5.80;91.00
2897;DHT22;1458;49.728;9.228;2023-03-04T10:25:13;5.80;90.90
2897;DHT22;1458;49.728;9.228;2023-03-04T10:27:47;5.90;90.70
2897;DHT22;1458;49.728;9.228;2023-03-04T10:30:29;6.00;89.70
2897;DHT22;1458;49.728;9.228;2023-03-04T10:33:04;6.10;89.30
2897;DHT22;1458;49.728;9.228;2023-03-04T10:35:41;6.10;86.50
2897;DHT22;1458;49.728;9.228;2023-03-04T10:38:12;6.10;87.70
2897;DHT22;1458;49.728;9.228;2023-03-04T10:40:40;6.10;83.50
2897;DHT22;1458;49.728;9.228;2023-03-04T10:43:16;6.10;84.00
2897;DHT22;1458;49.728;9.228;2023-03-04T10:45:45;6.30;84.20
2897;DHT22;1458;49.728;9.228;2023-03-04T10:48:21;6.00;82.20
2897;DHT22;1458;49.728;9.228;2023-03-04T10:50:51;6.20;81.20
2897;DHT22;1458;49.728;9.228;2023-03-04T10:53:28;6.30;82.40
2897;DHT22;1458;49.728;9.228;2023-03-04T10:55:58;6.40;82.50
2897;DHT22;1458;49.728;9.228;2023-03-04T10:58:27;6.20;80.00
2897;DHT22;1458;49.728;9.228;2023-03-04T11:01:00;6.10;81.30
2897;DHT22;1458;49.728;9.228;2023-03-04T11:03:54;6.50;80.30
2897;DHT22;1458;49.728;9.228;2023-03-04T11:06:23;6.40;78.40
2897;DHT22;1458;49.728;9.228;2023-03-04T11:08:55;6.10;80.60
2897;DHT22;1458;49.728;9.228;2023-03-04T11:11:28;6.50;79.20
2897;DHT22;1458;49.728;9.228;2023-03-04T11:14:01;6.40;78.70
2897;DHT22;1458;49.728;9.228;2023-03-04T11:16:31;6.50;78.80
2897;DHT22;1458;49.728;9.228;2023-03-04T11:19:02;6.50;76.70
2897;DHT22;1458;49.728;9.228;2023-03-04T11:21:37;6.30;76.10
2897;DHT22;1458;49.728;9.228;2023-03-04T11:24:11;6.30;77.30
2897;DHT22;1458;49.728;9.228;2023-03-04T11:26:44;6.20;75.70
2897;DHT22;1458;49.728;9.228;2023-03-04T11:29:14;6.20;76.70
2897;DHT22;1458;49.728;9.228;2023-03-04T11:31:48;6.30;77.10
2897;DHT22;1458;49.728;9.228;2023-03-04T11:34:27;6.20;77.30
2897;DHT22;1458;49.728;9.228;2023-03-04T11:37:01;6.20;76.40
2897;DHT22;1458;49.728;9.228;2023-03-04T11:39:34;6.30;76.40
2897;DHT22;1458;49.728;9.228;2023-03-04T11:42:10;6.20;75.90
2897;DHT22;1458;49.728;9.228;2023-03-04T11:44:42;6.40;76.70
2897;DHT22;1458;49.728;9.228;2023-03-04T11:47:39;6.30;75.90
2897;DHT22;1458;49.728;9.228;2023-03-04T11:50:39;6.30;76.60
2897;DHT22;1458;49.728;9.228;2023-03-04T11:53:38;6.10;75.10
2897;DHT22;1458;49.728;9.228;2023-03-04T11:56:19;6.30;75.50
2897;DHT22;1458;49.728;9.228;2023-03-04T11:59:16;6.00;74.90
2897;DHT22;1458;49.728;9.228;2023-03-04T12:02:11;6.20;76.80
2897;DHT22;1458;49.728;9.228;2023-03-04T12:08:20;6.10;75.10
2897;DHT22;1458;49.728;9.228;2023-03-04T12:11:00;6.40;75.20
2897;DHT22;1458;49.728;9.228;2023-03-04T12:17:23;6.30;75.60
2897;DHT22;1458;49.728;9.228;2023-03-04T12:20:09;6.00;75.40
2897;DHT22;1458;49.728;9.228;2023-03-04T12:22:45;6.00;77.70
2897;DHT22;1458;49.728;9.228;2023-03-04T12:25:37;6.00;77.00
2897;DHT22;1458;49.728;9.228;2023-03-04T12:28:22;5.80;77.00
2897;DHT22;1458;49.728;9.228;2023-03-04T12:31:15;5.70;78.00
2897;DHT22;1458;49.728;9.228;2023-03-04T12:34:18;5.80;78.00
2897;DHT22;1458;49.728;9.228;2023-03-04T12:37:15;5.80;77.80
2897;DHT22;1458;49.728;9.228;2023-03-04T12:40:02;5.70;76.60
2897;DHT22;1458;49.728;9.228;2023-03-04T12:42:40;5.60;77.10
2897;DHT22;1458;49.728;9.228;2023-03-04T12:45:21;5.80;76.50
2897;DHT22;1458;49.728;9.228;2023-03-04T12:48:00;5.70;77.20
2897;DHT22;1458;49.728;9.228;2023-03-04T12:50:35;5.60;77.60
2897;DHT22;1458;49.728;9.228;2023-03-04T12:53:16;5.70;78.20
2897;DHT22;1458;49.728;9.228;2023-03-04T12:55:49;5.80;77.40
2897;DHT22;1458;49.728;9.228;2023-03-04T12:58:18;6.00;78.20
2897;DHT22;1458;49.728;9.228;2023-03-04T13:00:54;6.10;75.70
2897;DHT22;1458;49.728;9.228;2023-03-04T13:03:32;6.10;75.40
2897;DHT22;1458;49.728;9.228;2023-03-04T13:06:12;5.90;75.50
2897;DHT22;1458;49.728;9.228;2023-03-04T13:09:01;6.10;77.40
2897;DHT22;1458;49.728;9.228;2023-03-04T13:11:39;6.20;76.10
2897;DHT22;1458;49.728;9.228;2023-03-04T13:14:27;6.10;75.70
2897;DHT22;1458;49.728;9.228;2023-03-04T13:16:58;6.00;76.50
2897;DHT22;1458;49.728;9.228;2023-03-04T13:19:46;6.20;76.50
2897;DHT22;1458;49.728;9.228;2023-03-04T13:22:46;6.20;75.80
2897;DHT22;1458;49.728;9.228;2023-03-04T13:25:35;6.30;75.70
2897;DHT22;1458;49.728;9.228;2023-03-04T13:31:17;6.30;75.90
2897;DHT22;1458;49.728;9.228;2023-03-04T13:33:53;6.30;74.50
2897;DHT22;1458;49.728;9.228;2023-03-04T13:39:30;6.40;75.20
2897;DHT22;1458;49.728;9.228;2023-03-04T13:42:03;6.60;74.80
2897;DHT22;1458;49.728;9.228;2023-03-04T13:44:55;6.50;75.00
2897;DHT22;1458;49.728;9.228;2023-03-04T13:47:31;6.90;75.30
2897;DHT22;1458;49.728;9.228;2023-03-04T13:50:38;6.90;72.80
2897;DHT22;1458;49.728;9.228;2023-03-04T13:53:39;6.90;73.40
2897;DHT22;1458;49.728;9.228;2023-03-04T13:56:24;6.80;73.30
2897;DHT22;1458;49.728;9.228;2023-03-04T13:59:08;6.80;74.30
2897;DHT22;1458;49.728;9.228;2023-03-04T14:02:11;6.80;73.20
2897;DHT22;1458;49.728;9.228;2023-03-04T14:04:42;7.00;72.70
2897;DHT22;1458;49.728;9.228;2023-03-04T14:07:21;7.00;73.20
2897;DHT22;1458;49.728;9.228;2023-03-04T14:09:58;7.20;72.80
2897;DHT22;1458;49.728;9.228;2023-03-04T14:12:29;7.20;72.00
2897;DHT22;1458;49.728;9.228;2023-03-04T14:14:58;7.40;71.10
2897;DHT22;1458;49.728;9.228;2023-03-04T14:17:29;7.30;71.50
2897;DHT22;1458;49.728;9.228;2023-03-04T14:19:58;7.30;71.60
2897;DHT22;1458;49.728;9.228;2023-03-04T14:22:31;7.30;71.50
2897;DHT22;1458;49.728;9.228;2023-03-04T14:25:01;7.10;71.40
2897;DHT22;1458;49.728;9.228;2023-03-04T14:27:30;7.20;72.40
2897;DHT22;1458;49.728;9.228;2023-03-04T14:30:03;7.10;71.40
2897;DHT22;1458;49.728;9.228;2023-03-04T14:32:32;7.00;70.80
2897;DHT22;1458;49.728;9.228;2023-03-04T14:35:02;6.90;71.80
2897;DHT22;1458;49.728;9.228;2023-03-04T14:37:40;7.00;72.20
2897;DHT22;1458;49.728;9.228;2023-03-04T14:40:18;7.10;70.80
2897;DHT22;1458;49.728;9.228;2023-03-04T14:42:50;7.00;70.80
2897;DHT22;1458;49.728;9.228;2023-03-04T14:45:23;6.90;71.80
2897;DHT22;1458;49.728;9.228;2023-03-04T14:47:52;6.90;73.00
2897;DHT22;1458;49.728;9.228;2023-03-04T14:50:22;7.00;71.80
2897;DHT22;1458;49.728;9.228;2023-03-04T14:53:03;7.00;71.70
2897;DHT22;1458;49.728;9.228;2023-03-04T14:55:54;6.90;72.00
2897;DHT22;1458;49.728;9.228;2023-03-04T14:58:25;6.80;71.60
2897;DHT22;1458;49.728;9.228;2023-03-04T15:01:05;6.80;72.90
2897;DHT22;1458;49.728;9.228;2023-03-04T15:03:34;6.70;71.50
2897;DHT22;1458;49.728;9.228;2023-03-04T15:06:07;6.60;72.30
2897;DHT22;1458;49.728;9.228;2023-03-04T15:08:45;6.60;73.50
2897;DHT22;1458;49.728;9.228;2023-03-04T15:11:20;6.50;72.90
2897;DHT22;1458;49.728;9.228;2023-03-04T15:13:50;6.50;72.80
2897;DHT22;1458;49.728;9.228;2023-03-04T15:16:21;6.50;73.00
2897;DHT22;1458;49.728;9.228;2023-03-04T15:18:54;6.30;73.60
2897;DHT22;1458;49.728;9.228;2023-03-04T15:21:37;6.40;74.10
2897;DHT22;1458;49.728;9.228;2023-03-04T15:24:08;6.40;74.90
2897;DHT22;1458;49.728;9.228;2023-03-04T15:26:40;6.40;74.80
2897;DHT22;1458;49.728;9.228;2023-03-04T15:29:13;6.30;74.30
2897;DHT22;1458;49.728;9.228;2023-03-04T15:31:42;6.20;76.10
2897;DHT22;1458;49.728;9.228;2023-03-04T15:34:12;6.20;76.20
2897;DHT22;1458;49.728;9.228;2023-03-04T15:36:40;6.30;74.80
2897;DHT22;1458;49.728;9.228;2023-03-04T15:39:12;6.20;74.50
2897;DHT22;1458;49.728;9.228;2023-03-04T15:41:41;6.10;75.20
2897;DHT22;1458;49.728;9.228;2023-03-04T15:44:08;6.10;75.80
2897;DHT22;1458;49.728;9.228;2023-03-04T15:46:37;6.10;75.00
2897;DHT22;1458;49.728;9.228;2023-03-04T15:49:04;6.10;75.70
2897;DHT22;1458;49.728;9.228;2023-03-04T15:51:32;6.10;75.70
2897;DHT22;1458;49.728;9.228;2023-03-04T15:54:00;6.10;75.90
2897;DHT22;1458;49.728;9.228;2023-03-04T15:56:30;6.00;75.80
2897;DHT22;1458;49.728;9.228;2023-03-04T15:59:01;6.00;76.10
2897;DHT22;1458;49.728;9.228;2023-03-04T16:01:30;5.90;76.90
2897;DHT22;1458;49.728;9.228;2023-03-04T16:03:57;6.00;76.70
2897;DHT22;1458;49.728;9.228;2023-03-04T16:06:27;6.10;77.10
2897;DHT22;1458;49.728;9.228;2023-03-04T16:08:56;6.00;76.60
2897;DHT22;1458;49.728;9.228;2023-03-04T16:11:25;5.90;77.20
2897;DHT22;1458;49.728;9.228;2023-03-04T16:13:55;5.90;77.90
2897;DHT22;1458;49.728;9.228;2023-03-04T16:16:24;5.90;77.90
2897;DHT22;1458;49.728;9.228;2023-03-04T16:18:51;5.80;78.30
2897;DHT22;1458;49.728;9.228;2023-03-04T16:21:20;5.80;78.20
2897;DHT22;1458;49.728;9.228;2023-03-04T16:23:49;5.70;78.70
2897;DHT22;1458;49.728;9.228;2023-03-04T16:26:20;5.70;79.00
2897;DHT22;1458;49.728;9.228;2023-03-04T16:28:48;5.70;78.90
2897;DHT22;1458;49.728;9.228;2023-03-04T16:31:18;5.70;78.50
2897;DHT22;1458;49.728;9.228;2023-03-04T16:33:46;5.60;79.70
2897;DHT22;1458;49.728;9.228;2023-03-04T16:36:15;5.60;79.50
2897;DHT22;1458;49.728;9.228;2023-03-04T16:38:45;5.50;80.30
2897;DHT22;1458;49.728;9.228;2023-03-04T16:41:14;5.50;80.40
2897;DHT22;1458;49.728;9.228;2023-03-04T16:43:43;5.40;80.60
2897;DHT22;1458;49.728;9.228;2023-03-04T16:46:11;5.30;81.30
2897;DHT22;1458;49.728;9.228;2023-03-04T16:48:40;5.40;81.20
2897;DHT22;1458;49.728;9.228;2023-03-04T16:51:13;5.50;80.70
2897;DHT22;1458;49.728;9.228;2023-03-04T16:53:45;5.50;80.50